Time;durP1;ratioP1;P1;durP2;ratioP2;P2;SDS_P1;SDS_P2;PMS_P1;PMS_P2;Temp;Humidity;BMP_temperature;BMP_pressure;BME280_temperature;BME280_humidity;BME280_pressure;Samples;Min_cycle;Max_cycle;Signal;HPM_P1;HPM_P2
2020/12/18 00:00:31;;;;;;;2.67;2.46;;;;;;;4.60;86.82;100163.38;2007230;80;20315;-73
2020/12/18 00:03:33;;;;;;;4.47;2.50;;;;;;;4.51;86.82;100151.09;2007552;80;20925;-73
2020/12/18 00:06:36;;;;;;;2.70;2.30;;;;;;;4.43;86.81;100147.41;2006697;80;20358;-73
2020/12/18 00:09:37;;;;;;;3.35;3.05;;;;;;;4.30;86.68;100157.22;2006346;80;20355;-73
2020/12/18 00:12:39;;;;;;;4.46;2.90;;;;;;;4.25;87.09;100154.50;2007443;80;20459;-73
2020/12/18 00:15:40;;;;;;;8.54;3.08;;;;;;;4.23;87.33;100153.59;2007271;80;20904;-73
2020/12/18 00:18:42;;;;;;;3.47;2.60;;;;;;;4.19;87.32;100156.88;2008209;80;20336;-73
2020/12/18 00:21:43;;;;;;;5.78;2.34;;;;;;;4.14;87.22;100155.88;2008573;80;20365;-73
2020/12/18 00:24:45;;;;;;;3.84;3.14;;;;;;;4.11;87.21;100154.03;2008766;80;20367;-73
2020/12/18 00:27:47;;;;;;;4.78;2.46;;;;;;;4.09;87.16;100159.97;2007916;80;20327;-73
2020/12/18 00:30:48;;;;;;;3.29;2.36;;;;;;;4.04;87.04;100162.38;2008184;80;20369;-73
2020/12/18 00:33:50;;;;;;;8.14;3.49;;;;;;;3.99;87.03;100161.34;2055687;69;20443;-73
2020/12/18 00:36:52;;;;;;;2.97;2.59;;;;;;;3.93;86.94;100162.00;2007822;80;20319;-73
2020/12/18 00:39:53;;;;;;;2.89;2.29;;;;;;;3.88;86.84;100160.97;2007676;80;20324;-73
2020/12/18 00:42:55;;;;;;;3.16;2.26;;;;;;;3.80;86.75;100170.13;2008199;80;20357;-73
2020/12/18 00:45:56;;;;;;;3.53;2.69;;;;;;;3.73;86.62;100172.41;2007677;80;20341;-73
2020/12/18 00:48:58;;;;;;;3.79;2.53;;;;;;;3.58;86.52;100180.44;2007675;80;20319;-73
2020/12/18 00:52:00;;;;;;;2.76;2.56;;;;;;;3.55;86.85;100165.78;2007624;80;20324;-73
2020/12/18 00:55:02;;;;;;;5.79;3.85;;;;;;;3.48;86.99;100161.28;2007769;80;20361;-73
2020/12/18 00:58:04;;;;;;;5.70;3.58;;;;;;;3.50;87.31;100167.31;2007767;80;20337;-73
2020/12/18 01:01:05;;;;;;;19.58;3.91;;;;;;;3.51;87.51;100157.94;2007769;80;20763;-73
2020/12/18 01:04:07;;;;;;;9.30;4.24;;;;;;;3.53;87.65;100164.00;2007795;80;20441;-73
2020/12/18 01:07:09;;;;;;;7.38;4.20;;;;;;;3.49;87.94;100162.16;2007952;80;20848;-73
2020/12/18 01:10:11;;;;;;;6.91;4.90;;;;;;;3.52;88.56;100162.25;2007676;80;20323;-74
2020/12/18 01:13:13;;;;;;;8.18;4.95;;;;;;;3.61;89.27;100162.59;2007755;80;20312;-74
2020/12/18 01:16:15;;;;;;;12.06;4.50;;;;;;;3.73;89.59;100160.44;2011034;80;20339;-73
2020/12/18 01:19:17;;;;;;;9.68;4.59;;;;;;;3.82;89.93;100168.47;2007916;80;20415;-73
2020/12/18 01:22:19;;;;;;;4.85;4.24;;;;;;;3.88;90.30;100160.97;2007545;80;20316;-73
2020/12/18 01:25:21;;;;;;;5.36;3.53;;;;;;;3.97;90.57;100164.69;2007896;80;20347;-73
2020/12/18 01:28:23;;;;;;;12.25;3.80;;;;;;;4.04;90.52;100170.09;2007893;80;20341;-73
2020/12/18 01:31:25;;;;;;;5.47;4.38;;;;;;;4.09;90.78;100171.09;2007872;80;20724;-73
2020/12/18 01:34:27;;;;;;;4.60;4.10;;;;;;;4.16;90.98;100167.06;2005615;80;20739;-73
2020/12/18 01:37:28;;;;;;;4.36;4.03;;;;;;;4.21;90.88;100168.09;2007748;80;20657;-74
2020/12/18 01:40:30;;;;;;;4.69;3.89;;;;;;;4.24;90.98;100170.75;2007811;80;20315;-73
2020/12/18 01:43:31;;;;;;;7.70;3.80;;;;;;;4.31;91.10;100175.28;2005459;80;20380;-74
2020/12/18 01:46:35;;;;;;;7.04;3.26;;;;;;;4.34;91.13;100170.25;2007244;80;20370;-74
2020/12/18 01:49:37;;;;;;;4.39;4.00;;;;;;;4.38;91.22;100173.78;2007232;80;20700;-73
2020/12/18 01:52:39;;;;;;;6.72;3.34;;;;;;;4.42;91.18;100173.06;2007740;80;20340;-74
2020/12/18 01:55:41;;;;;;;6.18;3.84;;;;;;;4.45;91.12;100168.88;2007140;80;20341;-74
2020/12/18 01:58:44;;;;;;;3.74;3.35;;;;;;;4.49;91.08;100170.75;2007772;80;20319;-74
2020/12/18 02:01:46;;;;;;;4.50;4.04;;;;;;;4.53;91.03;100171.72;2007864;80;21205;-74
2020/12/18 02:04:48;;;;;;;4.65;3.46;;;;;;;4.53;90.93;100172.59;2007720;80;20340;-74
2020/12/18 02:08:02;;;;;;;6.05;3.86;;;;;;;4.55;90.91;100170.94;2007986;80;20348;-74
2020/12/18 02:11:03;;;;;;;16.66;4.57;;;;;;;4.59;90.89;100166.75;2007252;80;20337;-74
2020/12/18 02:14:11;;;;;;;5.18;3.46;;;;;;;4.59;90.74;100161.63;2007361;80;20679;-73
2020/12/18 02:17:13;;;;;;;17.67;3.58;;;;;;;4.59;90.87;100169.34;2007445;80;20315;-74
2020/12/18 02:20:15;;;;;;;4.30;3.80;;;;;;;4.60;90.83;100173.66;2010462;80;20327;-73
2020/12/18 02:23:17;;;;;;;18.23;3.44;;;;;;;4.59;90.96;100166.75;2006510;80;20525;-74
2020/12/18 02:26:19;;;;;;;17.56;3.60;;;;;;;4.57;90.87;100168.41;2007718;80;21165;-73
2020/12/18 02:29:21;;;;;;;23.17;3.59;;;;;;;4.54;90.87;100166.63;2007047;80;20363;-74
2020/12/18 02:32:23;;;;;;;9.99;3.39;;;;;;;4.54;91.01;100165.75;2007656;80;20350;-74
2020/12/18 02:35:25;;;;;;;11.98;3.53;;;;;;;4.55;91.09;100165.78;2007402;80;20350;-73
2020/12/18 02:38:27;;;;;;;27.00;3.36;;;;;;;4.57;91.08;100175.25;2007966;80;21543;-73
2020/12/18 02:41:29;;;;;;;4.01;3.26;;;;;;;4.52;90.95;100167.41;2007652;80;20388;-73
2020/12/18 02:44:31;;;;;;;5.53;3.36;;;;;;;4.50;91.08;100159.66;2007673;80;20344;-74
2020/12/18 02:47:32;;;;;;;17.99;3.44;;;;;;;4.53;91.29;100156.28;2007426;80;20370;-74
2020/12/18 02:50:34;;;;;;;3.78;3.38;;;;;;;4.54;91.19;100158.91;2007515;80;20340;-74
2020/12/18 02:53:35;;;;;;;26.64;3.61;;;;;;;4.53;91.24;100156.28;2007852;80;20725;-73
2020/12/18 02:56:37;;;;;;;12.14;3.26;;;;;;;4.51;91.12;100150.22;2008118;80;20855;-74
2020/12/18 02:59:39;;;;;;;14.60;3.25;;;;;;;4.49;91.08;100154.47;2007691;80;20446;-73
2020/12/18 03:02:41;;;;;;;3.84;3.15;;;;;;;4.48;91.23;100147.53;2009258;80;20392;-75
2020/12/18 03:05:42;;;;;;;30.33;3.36;;;;;;;4.48;91.31;100152.69;2009429;80;20358;-74
2020/12/18 03:08:44;;;;;;;3.91;3.61;;;;;;;4.50;91.39;100151.06;2009389;80;20344;-74
2020/12/18 03:11:45;;;;;;;10.45;3.05;;;;;;;4.49;91.39;100149.31;2009046;80;20315;-74
2020/12/18 03:14:47;;;;;;;8.38;3.15;;;;;;;4.49;91.29;100150.19;2009118;80;20865;-74
2020/12/18 03:17:49;;;;;;;3.70;3.16;;;;;;;4.48;91.30;100150.97;2009096;80;20319;-74
2020/12/18 03:20:50;;;;;;;8.81;3.33;;;;;;;4.47;91.27;100151.81;2008851;80;20765;-74
2020/12/18 03:23:52;;;;;;;10.84;3.25;;;;;;;4.48;91.26;100144.97;2009685;80;20389;-74
2020/12/18 03:26:53;;;;;;;17.41;3.41;;;;;;;4.47;91.21;100150.94;2007288;80;20855;-74
2020/12/18 03:29:55;;;;;;;5.41;3.05;;;;;;;4.41;90.87;100148.19;2008731;80;20914;-74
2020/12/18 03:32:57;;;;;;;15.19;2.96;;;;;;;4.36;91.02;100148.03;2008126;80;20323;-74
2020/12/18 03:35:58;;;;;;;7.14;3.01;;;;;;;4.31;91.04;100152.16;2007706;80;20327;-73
2020/12/18 03:39:00;;;;;;;3.59;2.84;;;;;;;4.27;91.00;100149.41;2007320;80;20331;-74
2020/12/18 03:42:02;;;;;;;2.88;2.67;;;;;;;4.26;91.21;100143.41;2010298;80;20388;-74
2020/12/18 03:45:04;;;;;;;3.83;3.03;;;;;;;4.28;91.32;100153.72;2008108;80;20347;-74
2020/12/18 03:48:06;;;;;;;4.15;3.20;;;;;;;4.28;91.32;100151.16;2007137;80;20429;-74
2020/12/18 03:51:07;;;;;;;7.65;2.50;;;;;;;4.32;91.43;100146.19;2007449;80;20331;-74
2020/12/18 03:54:09;;;;;;;3.99;3.10;;;;;;;4.31;91.24;100148.69;2008737;80;20331;-74
2020/12/18 03:57:10;;;;;;;10.38;2.94;;;;;;;4.31;91.38;100143.53;2008275;80;20850;-74
2020/12/18 04:00:12;;;;;;;3.15;2.89;;;;;;;4.32;91.34;100142.75;2007790;80;20953;-74
2020/12/18 04:03:14;;;;;;;2.86;2.61;;;;;;;4.31;91.33;100141.88;2006370;80;20337;-74
2020/12/18 04:06:16;;;;;;;3.89;3.04;;;;;;;4.34;91.42;100149.69;2007805;80;20553;-74
2020/12/18 04:09:18;;;;;;;3.72;3.41;;;;;;;4.35;91.37;100146.28;2007235;80;20337;-74
2020/12/18 04:12:20;;;;;;;3.53;3.22;;;;;;;4.38;91.41;100148.09;2006503;80;20345;-73
2020/12/18 04:15:22;;;;;;;6.16;3.14;;;;;;;4.41;91.38;100150.75;2010080;80;20354;-74
2020/12/18 04:18:23;;;;;;;3.33;2.99;;;;;;;4.41;91.18;100153.31;2006838;80;20856;-74
2020/12/18 04:21:25;;;;;;;3.00;2.79;;;;;;;4.39;91.07;100153.28;2006656;80;20303;-74
2020/12/18 04:24:27;;;;;;;7.96;2.70;;;;;;;4.37;91.03;100148.91;2007587;80;21054;-74
2020/12/18 04:27:29;;;;;;;2.84;2.61;;;;;;;4.34;90.79;100149.69;2007058;80;20304;-74
2020/12/18 04:30:32;;;;;;;3.21;2.41;;;;;;;4.31;90.98;100143.53;2006854;80;21160;-74
2020/12/18 04:33:33;;;;;;;6.04;2.66;;;;;;;4.31;90.99;100146.13;2006580;80;20503;-74
2020/12/18 04:36:35;;;;;;;5.00;3.22;;;;;;;4.29;90.96;100140.06;2007311;80;20333;-73
2020/12/18 04:39:37;;;;;;;4.19;2.89;;;;;;;4.25;90.99;100133.94;2006952;80;20438;-73
2020/12/18 04:42:39;;;;;;;18.08;2.51;;;;;;;4.22;90.96;100133.84;2006898;80;20315;-74
2020/12/18 04:45:42;;;;;;;17.40;2.76;;;;;;;4.16;90.74;100134.53;2006449;80;20351;-74
2020/12/18 04:48:46;;;;;;;2.31;2.14;;;;;;;4.11;90.83;100130.03;2005920;80;20820;-74
2020/12/18 04:51:52;;;;;;;6.07;2.26;;;;;;;4.08;91.01;100130.81;2007157;80;20327;-73
2020/12/18 04:54:58;;;;;;;3.55;2.22;;;;;;;4.08;91.07;100125.69;2009742;80;20323;-74
2020/12/18 04:58:02;;;;;;;7.71;1.96;;;;;;;4.08;91.06;100133.38;2006369;80;20323;-73
2020/12/18 05:01:06;;;;;;;2.33;2.13;;;;;;;4.02;90.81;100130.63;2006523;80;20307;-73
2020/12/18 05:04:10;;;;;;;3.64;2.25;;;;;;;3.97;90.90;100124.47;2006483;80;20353;-73
2020/12/18 05:07:12;;;;;;;15.30;2.35;;;;;;;4.02;91.21;100128.06;2007033;80;20335;-73
2020/12/18 05:10:13;;;;;;;6.28;2.28;;;;;;;3.99;90.96;100129.66;2006273;80;20303;-74
2020/12/18 05:13:15;;;;;;;5.80;2.60;;;;;;;3.97;91.04;100133.88;2006552;80;20392;-74
2020/12/18 05:16:20;;;;;;;9.91;2.92;;;;;;;3.95;91.13;100128.69;2007212;80;20324;-74
2020/12/18 05:19:22;;;;;;;7.25;2.75;;;;;;;3.94;91.18;100139.75;2005077;80;20349;-73
2020/12/18 05:22:25;;;;;;;33.42;2.88;;;;;;;3.91;91.14;100131.94;2006642;80;20339;-73
2020/12/18 05:25:26;;;;;;;4.39;2.96;;;;;;;3.91;91.28;100132.81;2008458;80;20315;-73
2020/12/18 05:28:37;;;;;;;12.30;2.86;;;;;;;3.97;91.64;100131.31;2007440;80;20339;-73
2020/12/18 05:31:38;;;;;;;9.31;3.06;;;;;;;4.03;91.68;100129.81;2007495;80;20968;-74
2020/12/18 05:34:40;;;;;;;4.07;2.94;;;;;;;4.08;91.77;100132.50;2007648;80;21318;-74
2020/12/18 05:37:44;;;;;;;11.24;2.76;;;;;;;4.12;91.81;100129.22;2008194;80;20388;-74
2020/12/18 05:40:46;;;;;;;17.73;2.95;;;;;;;4.15;91.72;100142.19;2007150;80;20320;-74
2020/12/18 05:43:48;;;;;;;16.52;2.79;;;;;;;4.11;91.50;100140.31;2006775;80;20878;-74
2020/12/18 05:46:51;;;;;;;3.94;2.91;;;;;;;4.02;91.16;100133.19;2007076;80;20327;-73
2020/12/18 05:49:52;;;;;;;2.66;2.46;;;;;;;4.01;91.41;100134.00;2007439;80;21083;-73
2020/12/18 05:52:59;;;;;;;4.38;2.95;;;;;;;4.00;91.41;100131.41;2007663;80;20307;-73
2020/12/18 05:56:01;;;;;;;9.36;2.47;;;;;;;4.03;91.50;100131.50;2007285;80;20361;-73
2020/12/18 05:59:17;;;;;;;4.95;3.38;;;;;;;4.03;91.46;100131.50;2007421;80;20351;-73
2020/12/18 06:02:19;;;;;;;14.00;3.19;;;;;;;4.06;91.48;100129.91;2008561;80;20311;-74
2020/12/18 06:05:22;;;;;;;4.94;2.64;;;;;;;4.06;91.39;100135.03;2007045;80;20299;-73
2020/12/18 06:08:26;;;;;;;25.10;2.55;;;;;;;4.05;91.35;100135.84;2007885;80;20335;-74
2020/12/18 06:11:31;;;;;;;15.45;2.69;;;;;;;3.99;91.07;100134.78;2007561;80;20327;-74
2020/12/18 06:14:33;;;;;;;27.69;2.79;;;;;;;3.90;90.92;100138.78;2007594;80;20375;-74
2020/12/18 06:17:35;;;;;;;17.95;2.64;;;;;;;3.86;90.96;100136.94;2008251;80;20319;-73
2020/12/18 06:20:37;;;;;;;17.31;2.45;;;;;;;3.83;91.03;100135.97;2006958;80;20356;-73
2020/12/18 06:23:41;;;;;;;14.07;2.76;;;;;;;3.79;91.05;100135.00;2007386;80;20360;-73
2020/12/18 06:26:52;;;;;;;6.30;2.81;;;;;;;3.77;91.02;100135.72;2006311;80;20355;-73
2020/12/18 06:29:54;;;;;;;8.46;3.09;;;;;;;3.74;91.11;100141.63;2005772;80;20343;-74
2020/12/18 06:32:56;;;;;;;6.60;2.79;;;;;;;3.77;91.35;100146.91;2005602;80;20327;-74
2020/12/18 06:35:58;;;;;;;6.10;2.79;;;;;;;3.82;91.40;100134.22;2005698;80;20380;-73
2020/12/18 06:38:59;;;;;;;6.46;3.40;;;;;;;3.82;91.29;100134.22;2005684;80;20316;-74
2020/12/18 06:42:11;;;;;;;8.16;2.84;;;;;;;3.85;91.44;100131.75;2006192;80;21328;-73
2020/12/18 06:45:14;;;;;;;7.80;2.66;;;;;;;3.86;91.37;100136.94;2005929;80;20358;-73
2020/12/18 06:48:28;;;;;;;9.82;2.65;;;;;;;3.81;91.05;100128.22;2006433;80;20816;-73
2020/12/18 06:51:30;;;;;;;15.54;2.70;;;;;;;3.76;90.97;100140.00;2005351;80;20319;-71
2020/12/18 06:54:32;;;;;;;9.18;2.60;;;;;;;3.72;90.86;100134.72;2005696;80;20323;-71
2020/12/18 06:57:33;;;;;;;5.65;2.80;;;;;;;3.69;90.91;100135.47;2006728;80;20350;-71
2020/12/18 07:00:41;;;;;;;6.29;2.29;;;;;;;3.64;90.93;100127.63;2006985;80;20345;-73
2020/12/18 07:03:47;;;;;;;3.35;2.59;;;;;;;3.67;91.06;100125.97;2006121;80;21034;-72
2020/12/18 07:06:49;;;;;;;6.76;2.95;;;;;;;3.70;91.25;100123.50;2006515;80;20361;-72
2020/12/18 07:09:52;;;;;;;10.91;2.66;;;;;;;3.68;90.95;100122.59;2008808;80;20335;-72
2020/12/18 07:12:57;;;;;;;14.13;2.05;;;;;;;3.65;90.80;100131.06;2005657;80;20707;-72
2020/12/18 07:16:04;;;;;;;11.44;2.60;;;;;;;3.59;90.70;100128.25;2005219;80;20335;-74
2020/12/18 07:19:07;;;;;;;13.19;2.47;;;;;;;3.60;90.81;100130.03;2005464;80;20308;-73
2020/12/18 07:22:09;;;;;;;12.82;2.74;;;;;;;3.52;90.45;100142.59;2005420;80;20351;-73
2020/12/18 07:25:12;;;;;;;10.81;2.69;;;;;;;3.51;90.65;100138.28;2005585;80;20349;-74
2020/12/18 07:28:15;;;;;;;13.14;3.46;;;;;;;3.50;90.54;100138.22;2003127;80;20810;-73
2020/12/18 07:31:19;;;;;;;10.07;2.84;;;;;;;3.50;90.68;100145.91;2006462;80;20331;-73
2020/12/18 07:34:21;;;;;;;15.41;3.40;;;;;;;3.45;90.54;100140.63;2005975;80;20336;-74
2020/12/18 07:37:26;;;;;;;40.28;3.05;;;;;;;3.50;90.79;100135.66;2006589;80;20892;-74
2020/12/18 07:40:27;;;;;;;24.86;3.65;;;;;;;3.46;90.47;100129.53;2007124;80;20352;-74
2020/12/18 07:43:34;;;;;;;30.27;3.58;;;;;;;3.41;90.41;100136.22;2005935;80;20807;-74
2020/12/18 07:46:38;;;;;;;29.27;3.25;;;;;;;3.37;90.43;100139.47;2007249;80;20415;-74
2020/12/18 07:49:41;;;;;;;16.65;2.81;;;;;;;3.34;90.44;100137.66;2006935;80;20311;-74
2020/12/18 07:52:42;;;;;;;36.50;3.08;;;;;;;3.35;90.62;100141.09;2006439;80;20308;-72
2020/12/18 07:56:05;;;;;;;18.21;2.70;;;;;;;3.33;90.67;100146.19;2006318;80;20357;-72
2020/12/18 07:59:08;;;;;;;18.33;3.11;;;;;;;3.34;90.70;100147.94;2007407;80;20708;-74
2020/12/18 08:02:23;;;;;;;21.40;2.85;;;;;;;3.30;90.45;100140.94;2003951;80;20367;-73
2020/12/18 08:05:24;;;;;;;20.21;2.71;;;;;;;3.31;90.62;100140.13;2005509;80;20857;-74
2020/12/18 08:08:28;;;;;;;22.85;3.53;;;;;;;3.29;90.40;100140.88;2005711;80;20319;-73
2020/12/18 08:11:34;;;;;;;22.48;3.74;;;;;;;3.27;90.46;100145.09;2006407;80;20340;-74
2020/12/18 08:14:35;;;;;;;24.15;2.72;;;;;;;3.25;90.55;100141.59;2005560;80;20327;-72
2020/12/18 08:17:38;;;;;;;32.45;3.01;;;;;;;3.23;90.48;100146.69;2006622;80;20331;-72
2020/12/18 08:20:44;;;;;;;34.63;2.78;;;;;;;3.23;90.46;100135.50;2005735;80;20319;-76
2020/12/18 08:23:50;;;;;;;15.29;2.49;;;;;;;3.20;90.47;100143.97;2006806;80;20436;-72
2020/12/18 08:27:05;;;;;;;9.14;2.28;;;;;;;3.20;90.58;100141.41;2005740;80;20327;-73
2020/12/18 08:30:09;;;;;;;12.15;2.56;;;;;;;3.24;90.76;100142.41;2009565;80;20327;-72
2020/12/18 08:33:16;;;;;;;9.01;2.59;;;;;;;3.23;90.62;100146.69;2009688;80;20845;-72
2020/12/18 08:36:19;;;;;;;15.36;2.71;;;;;;;3.27;90.71;100148.53;2006276;80;20331;-72
2020/12/18 08:39:21;;;;;;;20.69;2.76;;;;;;;3.31;90.67;100150.38;2005447;80;20386;-72
2020/12/18 08:42:23;;;;;;;24.50;2.42;;;;;;;3.30;90.48;100147.78;2005295;80;20361;-72
2020/12/18 08:45:25;;;;;;;31.04;2.86;;;;;;;3.26;90.23;100144.22;2006493;80;20319;-72
2020/12/18 08:48:29;;;;;;;8.50;2.13;;;;;;;3.30;90.50;100142.63;2006361;80;20341;-72
2020/12/18 08:51:32;;;;;;;9.00;2.61;;;;;;;3.27;90.37;100127.13;2005408;80;20339;-71
2020/12/18 08:54:38;;;;;;;7.54;2.22;;;;;;;3.31;90.57;100137.56;2004716;80;20361;-72
2020/12/18 08:57:40;;;;;;;21.77;2.40;;;;;;;3.39;90.71;100132.69;2004916;80;20369;-72
2020/12/18 09:00:42;;;;;;;35.94;2.65;;;;;;;3.34;90.14;100132.53;2005251;80;20368;-71
2020/12/18 09:03:44;;;;;;;15.77;2.15;;;;;;;3.31;89.97;100136.69;2006035;80;20351;-71
2020/12/18 09:06:51;;;;;;;10.99;1.81;;;;;;;3.28;90.01;100129.75;2005160;80;20400;-72
2020/12/18 09:09:53;;;;;;;5.70;2.30;;;;;;;3.30;90.13;100140.06;2005555;80;20847;-72
2020/12/18 09:12:55;;;;;;;8.13;2.24;;;;;;;3.39;90.45;100136.94;2005350;80;20331;-73
2020/12/18 09:16:09;;;;;;;18.96;2.56;;;;;;;3.43;90.41;100134.56;2006219;80;20932;-72
2020/12/18 10:41:41;;;;;;;10.27;7.18;;;;;;;4.35;94.32;100094.88;2057303;77;20176;-75
2020/12/18 10:44:43;;;;;;;33.15;6.03;;;;;;;4.48;93.67;100091.84;2057818;78;20315;-73
2020/12/18 10:47:44;;;;;;;14.02;5.49;;;;;;;4.67;93.16;100082.13;2056967;78;20339;-73
2020/12/18 10:50:46;;;;;;;10.50;4.40;;;;;;;4.77;92.45;100084.16;2056735;78;20886;-73
2020/12/18 10:53:49;;;;;;;7.69;3.80;;;;;;;4.81;91.89;100084.28;2055850;78;20480;-73
2020/12/18 10:56:52;;;;;;;5.16;3.40;;;;;;;4.96;91.84;100075.28;2053435;78;20935;-73
2020/12/18 10:59:54;;;;;;;7.79;2.85;;;;;;;5.04;91.37;100066.09;2056871;78;20327;-73
2020/12/18 11:02:57;;;;;;;9.61;3.54;;;;;;;5.02;90.73;100067.72;2058857;78;20323;-75
2020/12/18 11:06:05;;;;;;;7.51;3.33;;;;;;;5.02;90.64;100067.72;2058824;78;20327;-73
2020/12/18 11:09:07;;;;;;;22.09;3.08;;;;;;;5.04;90.65;100068.66;2059063;78;20350;-74
2020/12/18 11:12:09;;;;;;;6.05;3.35;;;;;;;5.10;90.37;100063.69;2058840;78;20332;-73
2020/12/18 11:15:11;;;;;;;4.20;3.06;;;;;;;5.09;90.21;100064.50;2056650;78;20347;-73
2020/12/18 11:18:13;;;;;;;9.19;3.01;;;;;;;5.19;90.54;100058.75;2049241;78;20470;-73
2020/12/18 11:21:16;;;;;;;4.19;2.58;;;;;;;5.28;90.28;100063.31;2054548;78;20880;-73
2020/12/18 11:24:18;;;;;;;8.64;3.41;;;;;;;5.36;90.42;100059.22;2058451;78;20320;-73
2020/12/18 11:27:21;;;;;;;3.11;2.84;;;;;;;5.44;90.26;100055.19;2057899;78;20350;-73
2020/12/18 11:30:23;;;;;;;6.46;2.85;;;;;;;5.56;90.51;100052.91;2057311;78;20303;-73
2020/12/18 11:33:25;;;;;;;6.18;3.31;;;;;;;5.65;90.21;100053.16;2058380;78;20760;-72
2020/12/18 11:36:26;;;;;;;3.83;3.30;;;;;;;5.75;90.27;100056.84;2057439;78;20311;-72
2020/12/18 11:39:30;;;;;;;4.04;3.45;;;;;;;5.87;90.43;100052.00;2055569;78;20319;-72
2020/12/18 11:42:31;;;;;;;6.85;3.19;;;;;;;6.02;90.32;100051.53;2051005;78;20873;-73
2020/12/18 11:45:33;;;;;;;5.00;3.71;;;;;;;6.03;89.70;100054.16;2054163;78;20300;-73
2020/12/18 11:48:35;;;;;;;5.01;3.14;;;;;;;6.09;89.77;100050.84;2054128;78;20882;-73
2020/12/18 11:51:37;;;;;;;4.90;4.01;;;;;;;6.23;89.65;100036.56;2053723;78;20335;-72
2020/12/18 11:54:38;;;;;;;7.00;4.60;;;;;;;6.27;89.34;100035.81;2053990;78;20805;-72
2020/12/18 11:57:40;;;;;;;8.90;5.94;;;;;;;6.29;88.80;100041.03;2054333;78;20311;-72
2020/12/18 12:00:43;;;;;;;7.96;5.97;;;;;;;6.29;88.89;100031.56;2051869;78;20340;-72
2020/12/18 12:03:45;;;;;;;11.86;6.49;;;;;;;6.45;89.13;100024.16;2051212;78;20342;-72
2020/12/18 12:06:46;;;;;;;7.10;5.31;;;;;;;6.54;88.96;100020.09;2054116;78;20329;-72
2020/12/18 12:09:48;;;;;;;10.18;5.41;;;;;;;6.62;88.72;100028.84;2054643;78;20323;-72
2020/12/18 12:12:50;;;;;;;10.39;6.64;;;;;;;6.53;87.87;100018.34;2054786;78;20323;-72
2020/12/18 12:15:51;;;;;;;8.51;6.11;;;;;;;6.45;87.73;100014.72;2054818;78;20329;-72
2020/12/18 12:18:53;;;;;;;8.36;6.13;;;;;;;6.40;88.10;100008.59;2055524;78;21014;-73
2020/12/18 12:21:55;;;;;;;8.54;6.80;;;;;;;6.46;88.43;100011.28;2052607;78;20316;-74
2020/12/18 12:24:56;;;;;;;12.73;7.26;;;;;;;6.57;88.71;99993.47;2052263;78;20344;-74
2020/12/18 12:27:59;;;;;;;11.99;7.40;;;;;;;6.71;88.72;99998.94;2052992;78;20331;-73
2020/12/18 12:31:01;;;;;;;12.73;9.26;;;;;;;6.70;88.39;99989.47;2053594;78;21273;-73
2020/12/18 12:34:02;;;;;;;16.36;10.88;;;;;;;6.75;88.59;99991.28;2053432;78;20324;-73
2020/12/18 12:37:04;;;;;;;16.59;11.82;;;;;;;6.75;88.33;99983.53;2053391;78;20349;-73
2020/12/18 12:40:06;;;;;;;21.61;12.23;;;;;;;6.84;88.17;99982.88;2052671;78;20377;-72
2020/12/18 12:43:09;;;;;;;18.33;11.31;;;;;;;6.80;87.82;99978.47;2053934;78;20398;-75
2020/12/18 12:46:11;;;;;;;20.42;13.48;;;;;;;6.77;88.00;99976.69;2051713;78;21087;-72
2020/12/18 12:49:13;;;;;;;22.60;13.68;;;;;;;6.86;88.13;99976.91;2052096;78;20367;-72
2020/12/18 12:52:15;;;;;;;22.80;13.39;;;;;;;6.82;87.67;99969.94;2052628;78;20775;-73
2020/12/18 12:55:17;;;;;;;24.50;14.35;;;;;;;6.86;87.95;99961.41;2053737;78;20352;-72
2020/12/18 12:58:19;;;;;;;25.16;14.88;;;;;;;6.93;87.93;99964.97;2054213;78;20361;-73
2020/12/18 13:01:21;;;;;;;21.31;14.10;;;;;;;6.97;87.83;99959.88;2054608;78;20591;-72
2020/12/18 13:04:25;;;;;;;25.85;15.35;;;;;;;6.98;87.88;99951.28;2054249;78;20312;-73
2020/12/18 13:07:27;;;;;;;28.60;16.45;;;;;;;7.11;87.96;99957.56;2050149;78;20345;-74
2020/12/18 13:10:29;;;;;;;25.49;16.05;;;;;;;7.13;87.39;99953.28;2050174;78;20885;-73
2020/12/18 13:13:30;;;;;;;25.24;15.56;;;;;;;7.09;87.12;99956.66;2051584;78;20592;-73
2020/12/18 13:16:33;;;;;;;29.96;17.20;;;;;;;6.97;86.76;99956.44;2052714;78;20324;-73
2020/12/18 13:19:34;;;;;;;23.52;15.54;;;;;;;6.94;86.99;99949.50;2049132;78;20316;-73
2020/12/18 13:22:37;;;;;;;23.44;15.70;;;;;;;6.95;87.17;99951.25;2052839;78;20331;-73
2020/12/18 13:25:38;;;;;;;25.58;15.93;;;;;;;6.98;87.20;99942.69;2054102;78;20332;-73
2020/12/18 13:28:40;;;;;;;25.35;15.70;;;;;;;6.96;87.10;99947.81;2051543;78;20862;-73
2020/12/18 13:31:41;;;;;;;23.09;15.24;;;;;;;6.91;87.17;99949.44;2049841;78;21443;-72
2020/12/18 13:34:43;;;;;;;24.60;14.91;;;;;;;6.94;87.51;99943.47;2052120;78;20857;-73
2020/12/18 13:37:46;;;;;;;25.51;15.27;;;;;;;6.98;87.72;99947.84;2052604;78;20341;-73
2020/12/18 13:40:47;;;;;;;22.56;14.52;;;;;;;7.01;87.82;99942.75;2053513;78;21493;-72
2020/12/18 13:43:49;;;;;;;23.35;14.30;;;;;;;7.03;87.72;99932.47;2053842;78;21068;-73
2020/12/18 13:46:50;;;;;;;23.06;14.30;;;;;;;7.05;87.66;99928.19;2053705;78;20312;-73
2020/12/18 13:49:52;;;;;;;28.06;14.77;;;;;;;7.04;87.55;99924.75;2051938;78;20316;-73
2020/12/18 13:52:54;;;;;;;20.38;14.86;;;;;;;7.08;87.47;99933.41;2051110;78;20541;-73
2020/12/18 13:55:56;;;;;;;22.16;14.25;;;;;;;7.10;87.50;99931.72;2051118;78;20446;-74
2020/12/18 13:58:58;;;;;;;22.52;14.36;;;;;;;7.09;87.44;99915.34;2053441;78;20461;-75
2020/12/18 14:02:01;;;;;;;18.95;13.02;;;;;;;7.08;87.37;99923.09;2053066;78;20380;-74
2020/12/18 14:05:03;;;;;;;19.67;14.06;;;;;;;7.06;87.32;99933.38;2054032;78;20346;-74
2020/12/18 14:08:05;;;;;;;19.50;12.76;;;;;;;7.05;87.36;99936.81;2053403;78;20315;-74
2020/12/18 14:11:07;;;;;;;20.95;13.25;;;;;;;7.05;87.47;99929.06;2052520;78;20698;-73
2020/12/18 14:14:08;;;;;;;20.30;12.75;;;;;;;7.07;87.61;99934.25;2050453;78;20965;-73
2020/12/18 14:17:11;;;;;;;16.65;12.07;;;;;;;7.10;87.77;99924.84;2051244;78;20474;-72
2020/12/18 14:20:12;;;;;;;18.94;13.24;;;;;;;7.12;87.88;99928.31;2052455;78;20324;-73
2020/12/18 14:23:21;;;;;;;19.86;13.29;;;;;;;7.14;87.96;99926.63;2052017;78;20343;-74
2020/12/18 14:26:22;;;;;;;17.85;11.84;;;;;;;7.18;88.10;99925.88;2053563;78;20203;-74
2020/12/18 14:29:32;;;;;;;18.75;12.21;;;;;;;7.19;88.12;99925.03;2053732;78;21109;-74
2020/12/18 14:32:34;;;;;;;20.09;13.43;;;;;;;7.20;88.13;99912.97;2052823;78;20311;-74
2020/12/18 14:35:36;;;;;;;18.56;13.09;;;;;;;7.19;88.00;99909.53;2053795;78;20406;-74
2020/12/18 14:38:38;;;;;;;15.48;11.52;;;;;;;7.23;88.01;99907.88;2049933;78;21098;-74
2020/12/18 14:41:40;;;;;;;17.88;12.24;;;;;;;7.23;88.01;99907.88;2052133;78;20844;-74
2020/12/18 14:44:41;;;;;;;17.33;11.46;;;;;;;7.22;87.95;99901.81;2053483;78;20341;-75
2020/12/18 14:47:43;;;;;;;15.00;10.74;;;;;;;7.20;87.99;99902.66;2053200;78;20337;-74
2020/12/18 14:50:44;;;;;;;15.45;11.29;;;;;;;7.21;88.23;99900.09;2053520;78;20336;-75
2020/12/18 14:53:46;;;;;;;16.20;10.24;;;;;;;7.23;88.25;99903.56;2052974;78;20346;-75
2020/12/18 14:56:49;;;;;;;14.25;9.68;;;;;;;7.25;88.24;99895.84;2052208;78;20331;-74
2020/12/18 14:59:51;;;;;;;13.95;9.68;;;;;;;7.25;88.26;99888.09;2050635;78;20349;-75
2020/12/18 15:02:53;;;;;;;13.55;9.50;;;;;;;7.24;88.23;99883.78;2050973;78;20332;-75
2020/12/18 15:05:54;;;;;;;11.59;9.39;;;;;;;7.22;88.33;99878.59;2052706;78;20333;-74
2020/12/18 15:08:57;;;;;;;12.75;9.77;;;;;;;7.22;88.29;99878.59;2052002;78;20320;-75
2020/12/18 15:11:58;;;;;;;12.20;9.46;;;;;;;7.21;88.32;99858.78;2052478;78;20368;-74
2020/12/18 15:15:00;;;;;;;10.44;9.10;;;;;;;7.19;88.33;99865.63;2052267;78;20475;-75
2020/12/18 15:18:02;;;;;;;14.68;9.29;;;;;;;7.17;88.30;99867.28;2054664;78;20323;-74
2020/12/18 15:21:03;;;;;;;14.90;9.59;;;;;;;7.14;88.33;99859.50;2050406;78;20331;-74
2020/12/18 15:24:05;;;;;;;15.30;9.69;;;;;;;7.12;88.22;99858.59;2051317;78;20349;-74
2020/12/18 15:27:07;;;;;;;12.49;9.63;;;;;;;7.10;88.29;99857.72;2052841;78;20308;-74
2020/12/18 15:30:09;;;;;;;10.81;8.60;;;;;;;7.06;88.26;99852.47;2053772;78;20544;-74
2020/12/18 15:33:11;;;;;;;11.26;8.56;;;;;;;7.03;88.25;99849.84;2054296;78;20344;-74
2020/12/18 15:36:18;;;;;;;12.85;8.69;;;;;;;6.97;88.22;99850.59;2054027;78;20328;-73